createdAt,value
2019-02-02T05:21:39.193Z,31.87
2019-02-02T05:24:10.179Z,34.10
2019-02-02T05:26:40.781Z,33.83
2019-02-02T05:29:11.587Z,35.00
2019-02-02T05:31:42.244Z,30.90
2019-02-02T05:34:13.204Z,33.43
2019-02-02T05:36:43.866Z,34.30
2019-02-02T05:39:14.536Z,32.13
2019-02-02T05:41:45.211Z,31.50
2019-02-02T05:44:16.321Z,33.30
2019-02-02T05:46:47.259Z,34.07
2019-02-02T05:49:17.862Z,32.83
2019-02-02T05:51:48.603Z,33.80
2019-02-02T05:54:19.915Z,34.80
2019-02-02T06:01:49.975Z,41.90
2019-02-02T06:41:45.622Z,35.10
2019-02-02T06:46:45.794Z,33.60
2019-02-02T06:49:16.469Z,34.23
2019-02-02T06:51:47.058Z,35.40
2019-02-02T06:54:18.062Z,36.13
2019-02-02T06:56:50.983Z,37.47
2019-02-02T06:59:21.647Z,37.10
2019-02-02T07:01:52.308Z,33.90
2019-02-02T07:04:22.939Z,34.53
2019-02-02T09:02:01.601Z,36.30
2019-02-02T09:04:33.770Z,45.77
2019-02-02T09:07:07.111Z,45.70
2019-02-02T09:09:41.269Z,44.18
2019-02-02T09:12:11.842Z,45.92
2019-02-02T09:14:44.794Z,44.60
2019-02-02T09:17:16.116Z,45.33
2019-02-02T09:19:51.084Z,45.05
2019-02-02T09:22:27.972Z,44.80
2019-02-02T09:25:01.322Z,45.95
2019-02-02T09:27:32.026Z,43.90
2019-02-02T09:30:02.744Z,44.20
2019-02-02T09:32:37.902Z,45.28
2019-02-02T09:35:08.899Z,45.57
2019-02-02T09:37:40.055Z,44.83
2019-02-02T09:40:19.839Z,45.70
2019-02-02T09:42:55.406Z,46.58
2019-02-02T09:45:30.935Z,45.50
2019-02-02T09:48:03.612Z,45.48
2019-02-02T09:50:36.229Z,45.12
2019-02-02T09:53:11.011Z,46.18
2019-02-02T09:55:45.051Z,47.13
2019-02-02T09:58:15.978Z,44.80
2019-02-02T10:00:47.894Z,45.12
2019-02-02T10:03:21.572Z,45.63
2019-02-02T10:05:52.291Z,45.35
2019-02-02T10:08:23.353Z,47.25
2019-02-02T10:10:57.093Z,49.80
2019-02-02T10:13:34.863Z,50.23
2019-02-02T10:16:09.983Z,50.73
2019-02-02T10:18:44.085Z,48.15
2019-02-02T10:21:14.480Z,48.38
2019-02-02T10:23:47.558Z,50.43
2019-02-02T10:26:20.931Z,50.28
2019-02-02T10:28:52.071Z,50.23
2019-02-02T10:31:38.878Z,51.98
2019-02-02T10:34:00.677Z,53.13
2019-02-02T10:36:34.138Z,51.02
2019-02-02T10:39:07.918Z,51.92
2019-02-02T10:41:43.720Z,50.98
2019-02-02T10:44:14.708Z,49.77
2019-02-02T10:46:47.091Z,51.63
2019-02-02T10:49:20.133Z,49.73
2019-02-02T10:51:52.303Z,50.50
2019-02-02T10:54:23.366Z,50.28
2019-02-02T10:57:00.370Z,50.83
2019-02-02T10:59:34.534Z,51.63
2019-02-02T11:02:08.188Z,48.92
2019-02-02T11:04:44.194Z,48.80
2019-02-02T11:07:18.847Z,51.68
2019-02-02T11:09:50.817Z,51.33
2019-02-02T11:12:27.590Z,50.73
2019-02-02T11:15:04.109Z,52.43
2019-02-02T11:17:37.206Z,51.77
2019-02-02T11:20:17.562Z,52.05
2019-02-02T11:22:57.023Z,52.50
2019-02-02T11:25:31.340Z,51.73
2019-02-02T11:28:28.537Z,54.33
2019-02-02T11:30:59.766Z,50.88
2019-02-02T11:33:30.832Z,51.28
2019-02-02T11:38:52.651Z,51.55
2019-02-02T11:41:28.759Z,51.75
2019-02-02T11:44:04.591Z,53.40
2019-02-02T11:49:32.360Z,46.30
2019-02-02T11:52:08.318Z,48.20
2019-02-02T11:54:45.879Z,46.20
2019-02-02T11:57:20.879Z,46.40
2019-02-02T12:00:02.005Z,48.13
2019-02-02T12:02:35.848Z,43.60
2019-02-02T12:05:08.703Z,45.77
2019-02-02T12:07:41.583Z,46.97
2019-02-02T12:10:21.536Z,48.60
2019-02-02T12:13:03.783Z,54.42
2019-02-02T12:15:37.534Z,53.40
2019-02-02T12:18:12.078Z,74.72
2019-02-02T12:20:46.172Z,54.10
2019-02-02T12:23:32.438Z,54.65
2019-02-02T12:26:03.401Z,55.58
2019-02-02T12:28:36.666Z,55.15
2019-02-02T12:31:09.254Z,50.93
2019-02-02T12:33:44.484Z,46.90
2019-02-02T12:36:15.672Z,46.43
2019-02-02T12:38:48.927Z,48.90
2019-02-02T12:41:21.463Z,48.93
2019-02-02T12:43:53.521Z,48.27
2019-02-02T12:46:24.383Z,48.40
2019-02-02T12:48:56.936Z,47.67
2019-02-02T12:51:28.878Z,46.70
2019-02-02T12:54:00.331Z,51.00
2019-02-02T12:56:32.546Z,48.40
2019-02-02T12:59:05.765Z,50.03
2019-02-02T13:01:42.597Z,55.95
2019-02-02T13:04:20.419Z,58.55
2019-02-02T13:06:52.315Z,57.58
2019-02-02T13:09:24.282Z,52.27
2019-02-02T13:11:56.865Z,49.97
2019-02-02T13:14:31.902Z,53.93
2019-02-02T13:17:02.792Z,49.67
2019-02-02T13:19:37.807Z,48.60
2019-02-02T13:22:27.863Z,50.00
2019-02-02T13:24:57.232Z,47.23
2019-02-02T13:27:28.734Z,56.90
2019-02-02T13:30:00.724Z,58.00
2019-02-02T13:32:49.528Z,57.08
2019-02-02T13:35:10.418Z,57.43
2019-02-02T13:37:45.363Z,56.25
2019-02-02T13:40:18.309Z,55.25
2019-02-02T13:43:21.830Z,54.48
2019-02-02T13:45:58.517Z,55.90
2019-02-02T13:48:39.423Z,55.30
2019-02-02T13:51:13.437Z,55.05
2019-02-02T13:53:44.642Z,56.25
2019-02-02T13:59:58.844Z,55.45
2019-02-02T14:02:31.580Z,55.63
2019-02-02T14:05:05.931Z,57.80
2019-02-02T14:07:44.720Z,57.83
2019-02-02T14:10:18.301Z,57.13
2019-02-02T14:12:50.637Z,56.30
2019-02-02T14:15:24.594Z,58.53
2019-02-02T14:17:57.221Z,56.92
2019-02-02T14:20:28.541Z,56.88
2019-02-02T14:22:59.422Z,58.70
2019-02-02T14:25:30.443Z,59.13
2019-02-02T14:28:01.254Z,60.90
2019-02-02T14:30:32.064Z,60.95
2019-02-02T14:33:13.641Z,58.50
2019-02-02T14:35:35.644Z,60.28
2019-02-02T14:38:06.382Z,58.17
2019-02-02T14:40:37.129Z,58.87
2019-02-02T14:43:09.338Z,58.80
2019-02-02T14:46:05.693Z,59.40
2019-02-02T14:48:46.180Z,59.83
2019-02-02T14:51:21.138Z,58.65
2019-02-02T14:54:02.647Z,59.27
2019-02-02T14:57:02.998Z,59.23
2019-02-02T15:00:00.458Z,60.80
2019-02-02T15:06:26.489Z,61.37
2019-02-02T15:09:12.396Z,60.20
2019-02-02T15:12:05.589Z,65.12
2019-02-02T15:14:51.624Z,62.75
2019-02-02T15:17:26.735Z,62.93
2019-02-02T15:20:18.077Z,62.25
2019-02-02T15:23:08.024Z,62.48
2019-02-02T15:25:41.876Z,61.90
2019-02-02T15:28:33.543Z,63.52
2019-02-02T15:31:23.708Z,63.63
2019-02-02T15:34:29.259Z,64.27
2019-02-02T15:37:06.893Z,63.03
2019-02-02T15:39:51.676Z,64.33
2019-02-02T15:42:45.497Z,65.45
2019-02-02T15:45:22.001Z,57.10
2019-02-02T15:47:53.172Z,58.07
2019-02-02T15:51:17.758Z,52.80
2019-02-02T15:54:02.128Z,61.53
2019-02-02T15:56:42.348Z,61.70
2019-02-02T15:59:15.578Z,63.55
2019-02-02T16:01:46.748Z,63.55
2019-02-02T16:04:17.897Z,64.80
2019-02-02T16:07:02.306Z,61.30
2019-02-02T16:09:39.357Z,60.73
2019-02-02T16:12:11.904Z,61.73
2019-02-02T16:14:53.749Z,61.13
2019-02-02T16:17:27.696Z,60.80
2019-02-02T16:20:19.217Z,58.87
2019-02-02T16:23:02.962Z,61.68
2019-02-02T16:25:41.678Z,59.73
2019-02-02T16:28:25.480Z,60.48
2019-02-02T16:31:04.817Z,63.87
2019-02-02T16:33:47.059Z,60.55
2019-02-02T16:36:24.216Z,60.98
2019-02-02T16:39:18.228Z,64.25
2019-02-02T16:42:06.489Z,62.88
2019-02-02T16:44:53.697Z,62.83
2019-02-02T16:47:15.181Z,61.42
2019-02-02T16:49:46.182Z,61.95
2019-02-02T16:52:20.902Z,60.60
2019-02-02T16:54:52.010Z,63.00
2019-02-02T16:57:22.895Z,63.38
2019-02-02T17:00:06.423Z,63.10
2019-02-02T17:02:38.684Z,65.08
2019-02-02T17:05:14.062Z,65.70
2019-02-02T17:07:52.190Z,66.47
2019-02-02T17:10:32.446Z,66.50
2019-02-02T17:13:10.168Z,67.42
2019-02-02T17:15:41.641Z,69.90
2019-02-02T17:18:13.056Z,69.00
2019-02-02T17:20:47.730Z,69.05
2019-02-02T17:23:19.027Z,70.22
2019-02-02T17:26:19.979Z,70.97
2019-02-02T17:29:08.736Z,72.75
2019-02-02T17:31:55.689Z,74.17
2019-02-02T17:38:44.309Z,78.55
2019-02-02T17:41:25.249Z,74.90
2019-02-02T17:43:56.126Z,76.28
2019-02-02T17:46:27.752Z,75.65
2019-02-02T17:49:02.909Z,77.37
2019-02-02T17:51:38.050Z,75.53
2019-02-02T17:54:13.861Z,75.70
2019-02-02T17:56:48.017Z,76.72
2019-02-02T17:59:19.802Z,74.72
2019-02-02T18:01:50.755Z,78.37
2019-02-02T18:04:26.576Z,77.08
2019-02-02T18:07:12.193Z,78.80
2019-02-02T18:09:49.836Z,77.85
2019-02-02T18:13:01.548Z,79.67
2019-02-02T18:15:54.044Z,80.25
2019-02-02T18:18:26.576Z,78.85
2019-02-02T18:20:58.003Z,82.78
2019-02-02T18:23:35.753Z,80.55
2019-02-02T18:26:16.190Z,79.72
2019-02-02T18:28:54.807Z,81.78
2019-02-02T18:31:29.305Z,82.47
2019-02-02T18:34:04.834Z,81.17
2019-02-02T18:36:36.430Z,81.13
2019-02-02T18:39:18.239Z,82.55
2019-02-02T18:41:49.536Z,83.30
2019-02-02T18:44:20.801Z,82.97
2019-02-02T18:47:14.651Z,81.70
2019-02-02T18:49:52.557Z,84.13
2019-02-02T18:52:35.655Z,84.32
2019-02-02T18:55:08.773Z,84.10
2019-02-02T18:57:40.135Z,85.97
2019-02-02T19:00:25.839Z,82.95
2019-02-02T19:03:01.363Z,86.65
2019-02-02T19:05:34.500Z,84.13
2019-02-02T19:08:09.796Z,85.60
2019-02-02T19:10:51.780Z,86.12
2019-02-02T19:13:34.753Z,86.40
2019-02-02T19:16:12.635Z,85.07
2019-02-02T19:18:47.908Z,85.95
2019-02-02T19:21:18.882Z,85.45
2019-02-02T19:24:01.112Z,81.95
2019-02-02T19:26:37.215Z,87.72
2019-02-02T19:29:10.107Z,84.27
2019-02-02T19:31:42.706Z,81.13
2019-02-02T19:34:14.665Z,84.42
2019-02-02T19:36:45.724Z,83.75
2019-02-02T19:39:24.879Z,83.55
2019-02-02T19:42:00.741Z,84.37
2019-02-02T19:44:39.397Z,84.47
2019-02-02T19:47:16.058Z,82.72
2019-02-02T19:49:40.809Z,86.15
2019-02-02T19:52:12.258Z,83.15
2019-02-02T19:54:47.473Z,82.90
2019-02-02T19:57:20.617Z,84.52
2019-02-02T19:59:52.096Z,80.87
2019-02-02T20:02:27.891Z,83.17
2019-02-02T20:05:03.130Z,85.70
2019-02-02T20:07:38.876Z,83.70
2019-02-02T20:10:33.251Z,85.67
2019-02-02T20:13:02.575Z,84.58
2019-02-02T20:15:42.639Z,85.57
2019-02-02T20:18:43.809Z,79.50
2019-02-02T20:21:29.762Z,83.37
2019-02-02T20:24:10.997Z,81.82
2019-02-02T20:26:43.169Z,83.17
2019-02-02T20:29:18.037Z,81.22
2019-02-02T20:31:51.061Z,83.72
2019-02-02T20:34:23.551Z,85.38
2019-02-02T20:36:59.636Z,84.25
2019-02-02T20:39:34.570Z,83.62
2019-02-02T20:42:07.108Z,89.40
2019-02-02T20:44:47.977Z,80.70
2019-02-02T20:47:50.128Z,84.10
2019-02-02T20:50:28.208Z,84.80
2019-02-02T20:53:19.514Z,83.67
2019-02-02T20:56:18.064Z,87.17
2019-02-02T20:59:37.163Z,84.77
2019-02-02T21:02:35.300Z,83.42
2019-02-02T21:05:17.157Z,86.37
2019-02-02T21:07:58.338Z,85.65
2019-02-02T21:13:49.416Z,86.43
2019-02-02T21:16:40.802Z,84.10
2019-02-02T21:19:18.234Z,83.10
2019-02-02T21:22:30.477Z,81.03
2019-02-02T21:25:52.836Z,81.35
2019-02-02T21:29:42.813Z,80.85
2019-02-02T21:34:01.718Z,82.72
2019-02-02T21:41:29.724Z,79.32
2019-02-02T21:44:43.494Z,78.95
2019-02-02T21:46:39.057Z,80.47
2019-02-02T21:56:08.817Z,79.13
2019-02-02T21:58:41.830Z,80.90
2019-02-02T22:01:23.729Z,80.90
2019-02-02T22:03:48.094Z,81.85
2019-02-02T22:06:19.613Z,82.82
2019-02-02T22:08:50.692Z,83.30
2019-02-02T22:11:25.915Z,81.85
2019-02-02T22:13:57.787Z,77.55
2019-02-02T22:16:28.840Z,77.67
2019-02-02T22:19:01.808Z,77.00
2019-02-02T22:21:50.205Z,76.17
2019-02-02T22:24:26.307Z,76.37
2019-02-02T22:26:59.501Z,72.83
2019-02-02T22:30:18.359Z,76.33
2019-02-02T22:33:18.392Z,76.13
2019-02-02T22:36:07.498Z,77.67
2019-02-02T22:42:40.657Z,77.30
2019-02-02T22:45:48.626Z,76.53
2019-02-02T22:48:31.301Z,74.58
2019-02-02T22:51:10.061Z,73.90
2019-02-02T23:06:39.834Z,76.10
2019-02-02T23:22:08.120Z,77.85
2019-02-02T23:24:50.821Z,74.85
2019-02-02T23:28:08.043Z,73.60
2019-02-02T23:42:35.217Z,76.77
2019-02-02T23:49:24.356Z,79.85
